Time;durP1;ratioP1;P1;durP2;ratioP2;P2;SDS_P1;SDS_P2;PMS_P1;PMS_P2;Temp;Humidity;BMP_temperature;BMP_pressure;BME280_temperature;BME280_humidity;BME280_pressure;Samples;Min_cycle;Max_cycle;Signal;HPM_P1;HPM_P2
2023/06/11 00:02:04;;;;;;;;;;;;;;;19.65;89.27;98833.31;4289663;33;33126;-93
2023/06/11 00:04:34;;;;;;;;;;;;;;;19.88;89.16;98830.25;4289370;33;34240;-94
2023/06/11 00:07:05;;;;;;;;;;;;;;;19.56;92.37;98831.19;4289230;33;35543;-92
2023/06/11 00:09:33;;;;;;;;;;;;;;;19.36;94.79;98832.28;4288266;33;34360;-93
2023/06/11 00:12:01;;;;;;;;;;;;;;;19.31;95.13;98830.75;4276713;33;34146;-93
2023/06/11 00:14:29;;;;;;;;;;;;;;;19.21;96.09;98834.81;4276652;33;33987;-93
2023/06/11 00:16:57;;;;;;;;;;;;;;;19.10;99.02;98837.19;4288331;33;35302;-94
2023/06/11 00:19:28;;;;;;;;;;;;;;;19.07;99.22;98838.19;4276392;33;34714;-92
2023/06/11 00:21:58;;;;;;;;;;;;;;;19.04;99.90;98832.25;4277302;33;34096;-94
2023/06/11 00:24:26;;;;;;;;;;;;;;;18.95;100.00;98844.13;4289419;33;34618;-93
2023/06/11 00:26:55;;;;;;;;;;;;;;;19.17;99.56;98843.00;4289273;33;35443;-92
2023/06/11 00:29:23;;;;;;;;;;;;;;;19.24;99.02;98839.09;4289166;33;34583;-92
2023/06/11 00:31:51;;;;;;;;;;;;;;;19.35;96.56;98836.72;4289179;33;33382;-93
2023/06/11 00:34:18;;;;;;;;;;;;;;;19.61;95.30;98843.19;4276490;33;32709;-93
2023/06/11 00:36:47;;;;;;;;;;;;;;;19.48;95.56;98836.88;4276279;33;35224;-92
2023/06/11 00:39:15;;;;;;;;;;;;;;;19.62;93.80;98838.75;4276380;33;34763;-93
2023/06/11 00:41:45;;;;;;;;;;;;;;;19.51;95.27;98837.56;4277184;33;33347;-93
2023/06/11 00:44:21;;;;;;;;;;;;;;;19.56;94.18;98833.84;4290272;33;33528;-93
2023/06/11 00:46:51;;;;;;;;;;;;;;;19.65;93.85;98841.22;4291307;33;35242;-93
2023/06/11 00:49:19;;;;;;;;;;;;;;;19.62;93.60;98839.59;4291109;33;34618;-93
2023/06/11 00:51:47;;;;;;;;;;;;;;;19.67;93.97;98842.00;4290055;33;33095;-93
2023/06/11 00:54:16;;;;;;;;;;;;;;;19.78;93.50;98847.53;4266738;33;35101;-92
2023/06/11 00:56:45;;;;;;;;;;;;;;;19.66;93.98;98845.59;4291355;33;35189;-93
2023/06/11 00:59:13;;;;;;;;;;;;;;;19.78;92.46;98844.91;4291384;33;35016;-93
2023/06/11 01:01:59;;;;;;;;;;;;;;;19.72;91.47;98844.38;4278368;33;33864;-92
2023/06/11 01:04:29;;;;;;;;;;;;;;;19.76;90.95;98844.16;4277977;33;32924;-93
2023/06/11 01:06:57;;;;;;;;;;;;;;;19.92;89.05;98851.22;4291525;33;36074;-92
2023/06/11 01:09:26;;;;;;;;;;;;;;;19.90;88.39;98840.72;4278427;33;34524;-93
2023/06/11 01:11:58;;;;;;;;;;;;;;;20.19;86.20;98844.34;4266576;33;32341;-93
2023/06/11 01:14:26;;;;;;;;;;;;;;;20.46;83.13;98846.31;4278698;33;33613;-93
2023/06/11 01:17:02;;;;;;;;;;;;;;;20.08;84.76;98841.44;4290933;33;36033;-93
2023/06/11 01:19:52;;;;;;;;;;;;;;;20.07;85.14;98839.75;4278649;33;35034;-92
2023/06/11 01:22:21;;;;;;;;;;;;;;;19.95;84.91;98841.31;4289921;33;33147;-92
2023/06/11 01:24:55;;;;;;;;;;;;;;;20.04;84.24;98839.94;4277908;33;33414;-93
2023/06/11 01:27:23;;;;;;;;;;;;;;;20.20;83.38;98845.19;4291251;33;35385;-92
2023/06/11 01:29:51;;;;;;;;;;;;;;;19.89;83.49;98845.16;4290946;33;35148;-93
2023/06/11 01:32:20;;;;;;;;;;;;;;;20.15;82.22;98837.50;4278036;33;33987;-92
2023/06/11 01:34:49;;;;;;;;;;;;;;;20.23;81.55;98839.72;4290982;33;34144;-94
2023/06/11 01:37:17;;;;;;;;;;;;;;;20.33;80.44;98840.03;4291182;33;35017;-92
2023/06/11 01:39:47;;;;;;;;;;;;;;;20.28;81.56;98853.53;4289981;33;34350;-93
2023/06/11 01:42:15;;;;;;;;;;;;;;;20.30;80.45;98846.34;4278346;33;33804;-92
2023/06/11 01:44:43;;;;;;;;;;;;;;;20.09;81.11;98848.44;4278165;33;34070;-92
2023/06/11 01:47:11;;;;;;;;;;;;;;;20.12;81.32;98843.00;4278098;33;34976;-93
2023/06/11 01:49:39;;;;;;;;;;;;;;;20.10;81.87;98855.47;4289765;33;34533;-92
2023/06/11 01:52:07;;;;;;;;;;;;;;;20.07;81.69;98851.19;4290709;33;33174;-93
2023/06/11 01:54:35;;;;;;;;;;;;;;;20.00;81.62;98854.28;4277402;33;34965;-92
2023/06/11 01:57:03;;;;;;;;;;;;;;;20.05;81.40;98852.22;4290732;33;34906;-93
2023/06/11 01:59:31;;;;;;;;;;;;;;;20.03;80.81;98859.38;4278204;33;34410;-92
2023/06/11 02:01:59;;;;;;;;;;;;;;;20.08;80.33;98857.31;4277957;33;33248;-92
2023/06/11 02:04:27;;;;;;;;;;;;;;;20.05;80.22;98865.44;4277827;33;34121;-92
2023/06/11 02:06:55;;;;;;;;;;;;;;;20.05;79.95;98865.44;4277883;33;35873;-93
2023/06/11 02:09:23;;;;;;;;;;;;;;;20.11;79.88;98862.44;4277816;33;34708;-92
2023/06/11 02:11:51;;;;;;;;;;;;;;;19.91;81.37;98862.72;4266113;33;33451;-92
2023/06/11 02:14:18;;;;;;;;;;;;;;;19.73;81.67;98857.50;4265988;33;33787;-93
2023/06/11 02:16:46;;;;;;;;;;;;;;;19.89;80.99;98858.37;4290700;33;35173;-93
2023/06/11 02:19:16;;;;;;;;;;;;;;;20.12;79.07;98864.16;4278250;33;35740;-92
2023/06/11 02:21:46;;;;;;;;;;;;;;;20.16;78.63;98868.31;4277802;33;34046;-93
2023/06/11 02:24:13;;;;;;;;;;;;;;;19.91;79.99;98863.59;4289531;33;33792;-93
2023/06/11 02:26:42;;;;;;;;;;;;;;;19.89;79.55;98863.66;4266058;33;36307;-93
2023/06/11 02:29:10;;;;;;;;;;;;;;;20.13;78.53;98863.19;4290916;33;34365;-92
2023/06/11 02:31:38;;;;;;;;;;;;;;;19.99;78.94;98858.69;4290550;33;34101;-93
2023/06/11 02:34:06;;;;;;;;;;;;;;;20.31;76.88;98860.41;4290643;33;34966;-93
2023/06/11 02:36:34;;;;;;;;;;;;;;;19.98;78.40;98864.94;4277685;33;35324;-93
2023/06/11 02:39:02;;;;;;;;;;;;;;;19.95;78.25;98862.47;4277680;33;35141;-93
2023/06/11 02:41:30;;;;;;;;;;;;;;;19.90;78.13;98856.56;4289443;33;33301;-92
2023/06/11 02:43:58;;;;;;;;;;;;;;;19.95;77.36;98858.97;4277760;33;34057;-93
2023/06/11 02:46:26;;;;;;;;;;;;;;;19.99;76.89;98853.41;4290407;33;35272;-94
2023/06/11 02:48:54;;;;;;;;;;;;;;;19.70;77.78;98855.88;4277416;33;35168;-92
2023/06/11 02:51:22;;;;;;;;;;;;;;;20.16;76.44;98851.59;4277912;33;34124;-93
2023/06/11 02:53:50;;;;;;;;;;;;;;;19.96;77.34;98852.72;4277497;33;33882;-93
2023/06/11 02:56:17;;;;;;;;;;;;;;;19.80;77.13;98847.47;4265568;33;35441;-93
2023/06/11 02:58:47;;;;;;;;;;;;;;;19.91;77.44;98849.50;4290552;33;34464;-93
2023/06/11 03:01:15;;;;;;;;;;;;;;;19.91;77.94;98844.22;4290685;33;34062;-92
2023/06/11 03:03:42;;;;;;;;;;;;;;;19.93;77.14;98847.63;4277013;33;33343;-92
2023/06/11 03:06:11;;;;;;;;;;;;;;;19.82;77.95;98849.09;4290440;33;35828;-93
2023/06/11 03:08:39;;;;;;;;;;;;;;;19.70;78.49;98853.25;4277556;33;34725;-93
2023/06/11 03:11:06;;;;;;;;;;;;;;;19.87;77.93;98852.34;4290477;33;33397;-93
2023/06/11 03:13:35;;;;;;;;;;;;;;;19.79;77.77;98851.91;4277517;33;34350;-93
2023/06/11 03:16:02;;;;;;;;;;;;;;;19.87;76.34;98854.09;4290196;33;35119;-93
2023/06/11 03:18:30;;;;;;;;;;;;;;;19.88;77.37;98851.38;4290487;33;34664;-93
2023/06/11 03:20:59;;;;;;;;;;;;;;;20.07;74.59;98848.53;4277081;33;33310;-93
2023/06/11 03:23:27;;;;;;;;;;;;;;;20.05;75.04;98852.22;4290453;33;34721;-93
2023/06/11 03:25:55;;;;;;;;;;;;;;;19.89;75.26;98845.16;4290175;33;36035;-92
2023/06/11 03:28:26;;;;;;;;;;;;;;;20.02;74.57;98853.22;4289020;33;34493;-93
2023/06/11 03:30:54;;;;;;;;;;;;;;;19.95;75.31;98858.97;4290392;33;33339;-93
2023/06/11 03:33:22;;;;;;;;;;;;;;;19.98;74.94;98864.09;4276960;33;33780;-93
2023/06/11 03:35:51;;;;;;;;;;;;;;;19.84;76.62;98865.72;4277489;33;36010;-93
2023/06/11 03:38:19;;;;;;;;;;;;;;;19.68;79.66;98864.84;4290512;33;34603;-93
2023/06/11 03:40:47;;;;;;;;;;;;;;;19.81;77.83;98865.87;4277515;33;33296;-93
2023/06/11 03:43:15;;;;;;;;;;;;;;;20.08;76.61;98873.16;4277441;33;34158;-93
2023/06/11 03:45:43;;;;;;;;;;;;;;;19.96;78.73;98866.81;4277070;33;35344;-93
2023/06/11 03:48:11;;;;;;;;;;;;;;;19.68;81.46;98870.97;4288796;33;34232;-92
2023/06/11 03:50:39;;;;;;;;;;;;;;;19.80;80.47;98869.47;4290095;33;33311;-93
2023/06/11 03:53:07;;;;;;;;;;;;;;;19.80;81.54;98874.75;4289909;33;34103;-93
2023/06/11 03:55:35;;;;;;;;;;;;;;;19.91;80.42;98879.44;4276881;33;35697;-92
2023/06/11 03:58:04;;;;;;;;;;;;;;;20.01;78.85;98882.38;4265638;33;34624;-93
2023/06/11 04:00:32;;;;;;;;;;;;;;;19.85;80.40;98883.28;4276888;33;33319;-93
2023/06/11 04:03:00;;;;;;;;;;;;;;;19.89;78.21;98881.31;4277029;33;33852;-93
2023/06/11 04:05:33;;;;;;;;;;;;;;;19.78;78.69;98876.59;4288635;33;35280;-92
2023/06/11 04:08:01;;;;;;;;;;;;;;;19.85;78.33;98887.69;4276809;33;34744;-93
2023/06/11 04:10:29;;;;;;;;;;;;;;;19.79;77.97;98893.34;4289612;33;32875;-93
2023/06/11 04:12:56;;;;;;;;;;;;;;;19.79;80.06;98891.53;4289619;33;33824;-92
2023/06/11 04:15:24;;;;;;;;;;;;;;;20.09;77.93;98890.75;4289392;33;34775;-93
2023/06/11 04:17:52;;;;;;;;;;;;;;;19.77;80.64;98890.78;4278663;33;34622;-93
2023/06/11 04:20:20;;;;;;;;;;;;;;;19.97;80.40;98891.44;4291511;33;34248;-92
2023/06/11 04:22:48;;;;;;;;;;;;;;;19.81;78.84;98896.72;4291733;33;33289;-92
2023/06/11 04:25:19;;;;;;;;;;;;;;;19.80;81.81;98895.91;4290245;33;35705;-92
2023/06/11 04:27:47;;;;;;;;;;;;;;;19.88;80.58;98891.00;4278998;33;35053;-93
2023/06/11 04:30:16;;;;;;;;;;;;;;;19.86;84.53;98889.41;4278359;33;33463;-94
2023/06/11 04:32:44;;;;;;;;;;;;;;;19.82;82.27;98898.44;4291639;33;34601;-94
2023/06/11 04:35:12;;;;;;;;;;;;;;;20.05;78.77;98902.44;4278587;33;34929;-92
2023/06/11 04:37:45;;;;;;;;;;;;;;;19.92;78.28;98891.69;4278836;33;35410;-92
2023/06/11 04:40:16;;;;;;;;;;;;;;;19.90;78.75;98904.13;4290461;33;33233;-92
2023/06/11 04:42:46;;;;;;;;;;;;;;;20.00;80.07;98901.84;4278771;33;34099;-93
2023/06/11 04:45:18;;;;;;;;;;;;;;;19.91;78.61;98904.97;4289870;33;34986;-90
2023/06/11 04:47:47;;;;;;;;;;;;;;;19.86;80.15;98900.81;4278377;33;35008;-93
2023/06/11 04:50:20;;;;;;;;;;;;;;;20.08;77.32;98903.13;4290931;33;33787;-91
2023/06/11 04:52:52;;;;;;;;;;;;;;;20.33;75.32;98898.19;4290920;33;33990;-94
2023/06/11 04:55:24;;;;;;;;;;;;;;;20.18;77.63;98902.59;4290647;33;35970;-92
2023/06/11 04:57:54;;;;;;;;;;;;;;;20.38;75.82;98901.44;4278470;33;34654;-95
2023/06/11 05:00:23;;;;;;;;;;;;;;;19.80;79.65;98895.91;4290844;33;33100;-94
2023/06/11 05:02:51;;;;;;;;;;;;;;;20.04;78.29;98903.37;4290782;33;33984;-94
2023/06/11 05:05:20;;;;;;;;;;;;;;;20.07;81.22;98895.28;4277827;33;35085;-94
2023/06/11 05:07:49;;;;;;;;;;;;;;;20.24;79.39;98897.81;4290727;33;34121;-96
2023/06/11 05:10:18;;;;;;;;;;;;;;;20.36;80.41;98898.88;4290613;33;33835;-94
2023/06/11 05:12:46;;;;;;;;;;;;;;;20.29;78.45;98896.69;4290513;33;33871;-95
2023/06/11 05:15:14;;;;;;;;;;;;;;;20.41;77.74;98904.75;4277847;33;34949;-94
2023/06/11 05:17:42;;;;;;;;;;;;;;;20.49;80.70;98906.97;4290683;33;34731;-92
2023/06/11 05:20:10;;;;;;;;;;;;;;;20.46;78.25;98909.78;4290514;33;33857;-91
2023/06/11 05:22:39;;;;;;;;;;;;;;;20.79;77.05;98900.84;4289138;33;34100;-93
2023/06/11 05:25:08;;;;;;;;;;;;;;;20.32;75.71;98905.28;4277667;33;35235;-94
2023/06/11 05:27:37;;;;;;;;;;;;;;;20.94;76.97;98907.81;4290314;33;34159;-91
2023/06/11 05:30:05;;;;;;;;;;;;;;;21.04;74.81;98904.66;4289421;33;33066;-90
2023/06/11 05:32:33;;;;;;;;;;;;;;;21.33;74.30;98910.78;4277424;33;34547;-93
2023/06/11 05:35:03;;;;;;;;;;;;;;;21.52;70.12;98905.22;4277491;33;36026;-89
2023/06/11 05:37:31;;;;;;;;;;;;;;;21.09;71.47;98908.72;4292034;33;34518;-90
2023/06/11 05:39:59;;;;;;;;;;;;;;;21.13;70.54;98906.72;4292191;33;33049;-91
2023/06/11 05:42:27;;;;;;;;;;;;;;;21.37;69.41;98907.84;4291529;33;34706;-90
2023/06/11 05:44:55;;;;;;;;;;;;;;;21.55;71.82;98910.34;4304834;33;35289;-89
2023/06/11 05:47:22;;;;;;;;;;;;;;;21.85;70.94;98914.62;4304929;33;35029;-89
2023/06/11 05:49:50;;;;;;;;;;;;;;;22.02;67.81;98908.25;4305118;33;34115;-90
2023/06/11 05:52:18;;;;;;;;;;;;;;;21.74;67.61;98913.53;4291928;33;34242;-90
2023/06/11 05:54:46;;;;;;;;;;;;;;;21.53;69.07;98912.22;4292184;33;35149;-90
2023/06/11 05:57:21;;;;;;;;;;;;;;;21.54;69.67;98920.06;4291351;33;34556;-90
2023/06/11 05:59:50;;;;;;;;;;;;;;;21.20;71.27;98910.69;4289433;33;33458;-91
2023/06/11 06:02:19;;;;;;;;;;;;;;;21.07;72.06;98922.97;4290208;33;34283;-95
2023/06/11 06:04:48;;;;;;;;;;;;;;;21.22;70.42;98919.41;4277305;33;34934;-89
2023/06/11 06:07:16;;;;;;;;;;;;;;;21.37;70.00;98929.06;4290231;33;34153;-93
2023/06/11 06:09:44;;;;;;;;;;;;;;;21.47;68.56;98933.81;4290289;33;33371;-93
2023/06/11 06:12:12;;;;;;;;;;;;;;;21.09;70.61;98935.19;4289941;33;34265;-91
2023/06/11 06:14:41;;;;;;;;;;;;;;;21.36;70.41;98934.44;4289244;33;36038;-90
2023/06/11 06:17:08;;;;;;;;;;;;;;;21.22;71.45;98929.97;4277090;33;34590;-90
2023/06/11 06:19:37;;;;;;;;;;;;;;;21.37;70.66;98934.34;4290453;33;34088;-94
2023/06/11 06:22:04;;;;;;;;;;;;;;;21.26;71.52;98931.50;4290085;33;34626;-93
2023/06/11 06:24:32;;;;;;;;;;;;;;;21.51;69.40;98924.72;4290012;33;35660;-94
2023/06/11 06:27:00;;;;;;;;;;;;;;;21.17;70.46;98927.59;4277132;33;34639;-91
2023/06/11 06:29:31;;;;;;;;;;;;;;;21.06;71.72;98931.88;4277322;33;33203;-90
2023/06/11 06:31:59;;;;;;;;;;;;;;;21.34;72.58;98934.53;4277564;33;33868;-94
2023/06/11 06:34:27;;;;;;;;;;;;;;;21.53;69.86;98938.69;4277091;33;35696;-90
2023/06/11 06:36:55;;;;;;;;;;;;;;;21.17;71.13;98932.06;4289841;33;34510;-93
2023/06/11 06:39:23;;;;;;;;;;;;;;;21.30;72.71;98938.31;4276282;33;32163;-92
2023/06/11 06:41:51;;;;;;;;;;;;;;;21.61;70.03;98939.09;4277429;33;33867;-91
2023/06/11 06:44:20;;;;;;;;;;;;;;;21.47;69.78;98947.88;4278099;33;34868;-92
2023/06/11 06:46:49;;;;;;;;;;;;;;;21.95;69.93;98940.47;4288985;33;34824;-91
2023/06/11 06:49:17;;;;;;;;;;;;;;;22.54;66.79;98939.34;4278111;33;33231;-92
2023/06/11 06:51:45;;;;;;;;;;;;;;;22.73;67.29;98941.63;4277553;33;34221;-92
2023/06/11 06:54:13;;;;;;;;;;;;;;;22.83;68.28;98945.31;4265838;33;34291;-92
2023/06/11 06:56:41;;;;;;;;;;;;;;;23.71;63.46;98943.75;4265957;33;35292;-92
2023/06/11 06:59:09;;;;;;;;;;;;;;;23.14;63.46;98953.06;4290477;33;33669;-91
2023/06/11 07:01:37;;;;;;;;;;;;;;;23.35;67.99;98945.38;4290463;33;34256;-92
2023/06/11 07:04:06;;;;;;;;;;;;;;;23.89;62.66;98946.94;4277800;33;35191;-92
2023/06/11 07:06:33;;;;;;;;;;;;;;;23.59;64.98;98946.31;4277344;33;35070;-91
2023/06/11 07:09:03;;;;;;;;;;;;;;;24.65;59.57;98948.44;4277528;33;33332;-92
2023/06/11 07:11:31;;;;;;;;;;;;;;;24.91;57.14;98949.13;4277595;33;34146;-93
2023/06/11 07:13:59;;;;;;;;;;;;;;;24.55;58.20;98955.44;4277716;33;35302;-91
2023/06/11 07:16:27;;;;;;;;;;;;;;;24.72;58.32;98947.00;4290346;33;34727;-91
2023/06/11 07:18:56;;;;;;;;;;;;;;;25.01;58.05;98943.94;4266122;33;33838;-91
2023/06/11 07:21:24;;;;;;;;;;;;;;;25.69;55.44;98946.69;4290202;33;34018;-92
2023/06/11 07:23:51;;;;;;;;;;;;;;;26.22;53.79;98944.19;4289125;33;35743;-92
2023/06/11 07:26:19;;;;;;;;;;;;;;;26.41;52.24;98943.53;4277400;33;34259;-93
2023/06/11 07:28:47;;;;;;;;;;;;;;;26.60;57.69;98945.50;4277859;33;33379;-92
2023/06/11 07:31:16;;;;;;;;;;;;;;;25.52;55.11;98940.03;4266005;33;34505;-93
2023/06/11 07:33:46;;;;;;;;;;;;;;;26.92;51.36;98947.31;4276926;33;35049;-93
2023/06/11 07:36:15;;;;;;;;;;;;;;;25.55;54.06;98947.78;4290220;33;34638;-94
2023/06/11 07:38:44;;;;;;;;;;;;;;;25.83;52.18;98951.75;4290183;33;33297;-94
2023/06/11 07:41:15;;;;;;;;;;;;;;;26.23;51.02;98947.72;4288802;33;34217;-93
2023/06/11 07:43:44;;;;;;;;;;;;;;;25.25;53.19;98956.37;4290259;33;35283;-93
2023/06/11 07:46:14;;;;;;;;;;;;;;;24.46;54.96;98946.28;4277311;33;35406;-93
2023/06/11 07:48:44;;;;;;;;;;;;;;;24.19;58.53;98951.81;4277450;33;32568;-92
2023/06/11 07:51:14;;;;;;;;;;;;;;;24.24;56.88;98952.34;4278059;33;33627;-92
2023/06/11 07:53:46;;;;;;;;;;;;;;;25.10;56.49;98956.56;4267303;33;34014;-92
2023/06/11 07:56:14;;;;;;;;;;;;;;;25.82;57.21;98958.06;4265529;33;855488;-92
2023/06/11 07:58:42;;;;;;;;;;;;;;;25.62;55.16;98962.31;4278646;33;33265;-93
2023/06/11 08:01:10;;;;;;;;;;;;;;;25.57;54.27;98959.16;4278485;33;33948;-94
2023/06/11 08:03:39;;;;;;;;;;;;;;;25.49;55.04;98964.28;4278632;33;35423;-93
2023/06/11 08:06:08;;;;;;;;;;;;;;;24.93;55.70;98970.31;4278599;33;35284;-93
2023/06/11 08:08:36;;;;;;;;;;;;;;;24.92;55.98;98973.97;4278640;33;34021;-92
2023/06/11 08:11:05;;;;;;;;;;;;;;;25.38;56.21;98967.78;4278313;33;34247;-92
2023/06/11 08:13:34;;;;;;;;;;;;;;;24.88;57.33;98977.81;4291456;33;35295;-92
2023/06/11 08:16:02;;;;;;;;;;;;;;;24.78;57.31;98975.84;4291395;33;34735;-92
2023/06/11 08:18:30;;;;;;;;;;;;;;;24.88;58.10;98981.31;4291489;33;33372;-92
2023/06/11 08:20:58;;;;;;;;;;;;;;;24.39;58.81;98977.81;4278595;33;34140;-92
2023/06/11 08:23:26;;;;;;;;;;;;;;;24.51;58.70;98973.41;4278487;33;35971;-93
2023/06/11 08:25:58;;;;;;;;;;;;;;;25.24;58.08;98975.97;4291345;33;34654;-93
2023/06/11 08:28:30;;;;;;;;;;;;;;;24.77;60.57;98971.47;4278936;33;33113;-93
2023/06/11 08:30:58;;;;;;;;;;;;;;;24.59;58.81;98980.84;4290216;33;34965;-94
2023/06/11 08:33:25;;;;;;;;;;;;;;;25.07;61.59;98979.91;4278139;33;34561;-95
2023/06/11 08:35:53;;;;;;;;;;;;;;;25.79;59.58;98979.66;4278590;33;33494;-93
2023/06/11 08:38:21;;;;;;;;;;;;;;;26.53;56.65;98981.72;4278529;33;33260;-93
2023/06/11 08:40:49;;;;;;;;;;;;;;;26.31;54.21;98979.94;4278269;33;34060;-93
2023/06/11 08:43:17;;;;;;;;;;;;;;;26.47;54.35;98979.53;4290165;33;36068;-93
2023/06/11 08:45:45;;;;;;;;;;;;;;;25.97;56.32;98977.34;4291232;33;34446;-93
2023/06/11 08:48:13;;;;;;;;;;;;;;;25.39;59.20;98981.94;4291408;33;33565;-92
2023/06/11 08:50:41;;;;;;;;;;;;;;;25.05;57.54;98979.19;4291307;33;33825;-92
2023/06/11 08:53:12;;;;;;;;;;;;;;;24.79;60.58;98977.56;4291225;33;36059;-91
2023/06/11 08:55:41;;;;;;;;;;;;;;;24.59;57.91;98972.87;4266963;33;34503;-94
2023/06/11 08:58:09;;;;;;;;;;;;;;;25.06;61.65;98979.09;4291176;33;33869;-93
2023/06/11 09:00:37;;;;;;;;;;;;;;;24.67;58.69;98975.81;4266531;33;34899;-92
2023/06/11 09:03:05;;;;;;;;;;;;;;;24.69;59.25;98979.22;4289922;33;35276;-93
2023/06/11 09:05:35;;;;;;;;;;;;;;;24.82;61.23;98975.62;4278253;33;34679;-95
2023/06/11 09:08:07;;;;;;;;;;;;;;;24.97;59.49;98977.09;4291140;33;33101;-96
2023/06/11 09:10:51;;;;;;;;;;;;;;;24.75;60.31;98976.06;4266914;33;34100;-93
2023/06/11 09:13:19;;;;;;;;;;;;;;;24.87;60.80;98973.47;4278452;33;34987;-93
2023/06/11 09:16:00;;;;;;;;;;;;;;;24.56;59.23;98976.59;4278535;33;34426;-93
2023/06/11 09:18:28;;;;;;;;;;;;;;;24.85;58.16;98983.34;4278981;33;33257;-93
2023/06/11 09:20:57;;;;;;;;;;;;;;;24.97;57.29;98977.09;4289477;33;35030;-96
2023/06/11 09:23:32;;;;;;;;;;;;;;;25.73;57.86;98975.66;4286816;33;35261;-93
2023/06/11 09:26:00;;;;;;;;;;;;;;;25.71;55.06;98982.94;4291536;33;35431;-93
2023/06/11 09:28:31;;;;;;;;;;;;;;;25.47;56.84;98985.72;4290718;33;33934;-96
2023/06/11 09:31:00;;;;;;;;;;;;;;;25.53;58.22;98987.87;4289082;33;34570;-96
2023/06/11 09:33:28;;;;;;;;;;;;;;;25.39;55.33;98982.78;4289336;33;35221;-93
2023/06/11 09:35:56;;;;;;;;;;;;;;;26.23;55.46;98983.25;4289497;33;34343;-93
2023/06/11 09:38:25;;;;;;;;;;;;;;;25.83;55.17;98985.59;4289592;33;33391;-91
2023/06/11 09:40:56;;;;;;;;;;;;;;;27.06;51.79;98988.91;4264964;33;33628;-91
2023/06/11 09:43:25;;;;;;;;;;;;;;;25.66;55.96;98978.91;4289721;33;36010;-91
2023/06/11 09:45:54;;;;;;;;;;;;;;;24.55;58.06;98976.72;4264759;33;35359;-92
2023/06/11 09:48:22;;;;;;;;;;;;;;;24.98;58.10;98984.97;4277324;33;31882;-93
2023/06/11 09:50:53;;;;;;;;;;;;;;;25.26;59.26;98977.56;4290154;33;34109;-91
2023/06/11 09:53:22;;;;;;;;;;;;;;;25.67;58.24;98980.63;4290131;33;35289;-93
2023/06/11 09:55:50;;;;;;;;;;;;;;;26.81;54.52;98982.13;4290049;33;35173;-92
2023/06/11 09:58:24;;;;;;;;;;;;;;;28.28;47.17;98978.38;4290081;33;33881;-92
2023/06/11 10:00:58;;;;;;;;;;;;;;;27.35;50.81;98986.44;4290186;33;34094;-94
2023/06/11 10:03:27;;;;;;;;;;;;;;;26.76;52.15;98979.84;4267818;33;34867;-93
2023/06/11 10:05:55;;;;;;;;;;;;;;;27.76;47.71;98983.81;4277136;33;33877;-92
2023/06/11 10:08:23;;;;;;;;;;;;;;;27.18;50.64;98979.84;4276948;33;32985;-93
2023/06/11 10:10:51;;;;;;;;;;;;;;;26.23;54.65;98982.41;4277121;33;33984;-93
2023/06/11 10:13:26;;;;;;;;;;;;;;;26.05;53.05;98982.94;4276313;33;35048;-93
2023/06/11 10:15:55;;;;;;;;;;;;;;;26.12;53.86;98980.63;4277009;33;34326;-94
2023/06/11 10:18:24;;;;;;;;;;;;;;;26.67;51.64;98973.44;4277104;33;33323;-94
2023/06/11 10:20:56;;;;;;;;;;;;;;;25.60;53.94;98984.75;4290373;33;35003;-92
2023/06/11 10:23:34;;;;;;;;;;;;;;;25.37;55.61;98979.41;4268487;33;34904;-93
2023/06/11 10:26:02;;;;;;;;;;;;;;;24.87;55.85;98984.12;4291481;33;35323;-92
2023/06/11 10:28:37;;;;;;;;;;;;;;;25.09;56.24;98976.16;4291303;33;33395;-92
2023/06/11 10:31:04;;;;;;;;;;;;;;;25.22;57.86;98978.75;4291552;33;34160;-96
2023/06/11 10:33:36;;;;;;;;;;;;;;;25.83;56.06;98977.59;4302916;33;35738;-92
2023/06/11 10:36:04;;;;;;;;;;;;;;;26.43;53.84;98978.94;4291313;33;34487;-91
2023/06/11 10:38:37;;;;;;;;;;;;;;;26.33;56.24;98978.03;4304073;33;34025;-94
2023/06/11 10:41:05;;;;;;;;;;;;;;;26.09;54.33;98973.69;4304505;33;34228;-92
2023/06/11 10:43:33;;;;;;;;;;;;;;;25.88;53.79;98978.06;4304200;33;35295;-91
2023/06/11 10:46:02;;;;;;;;;;;;;;;25.29;56.78;98971.13;4279415;33;35377;-93
2023/06/11 10:48:30;;;;;;;;;;;;;;;25.26;55.62;98974.91;4303965;33;33136;-92
2023/06/11 10:50:59;;;;;;;;;;;;;;;25.30;55.97;98970.19;4304265;33;34876;-92
2023/06/11 10:53:37;;;;;;;;;;;;;;;25.44;55.90;98964.63;4304004;33;35153;-92
2023/06/11 10:56:05;;;;;;;;;;;;;;;25.23;54.42;98971.59;4304178;33;33583;-95
2023/06/11 10:58:33;;;;;;;;;;;;;;;25.47;57.80;98964.37;4304665;33;32956;-95
2023/06/11 11:01:03;;;;;;;;;;;;;;;26.81;51.31;98974.13;4304669;33;34350;-92
2023/06/11 11:03:31;;;;;;;;;;;;;;;27.73;49.30;98968.88;4304227;33;35020;-92
2023/06/11 11:05:59;;;;;;;;;;;;;;;26.99;51.00;98975.22;4303833;33;34625;-96
2023/06/11 11:08:28;;;;;;;;;;;;;;;26.81;52.16;98971.44;4290812;33;32086;-94
2023/06/11 11:10:56;;;;;;;;;;;;;;;27.11;51.50;98961.78;4303623;33;34515;-94
2023/06/11 11:13:24;;;;;;;;;;;;;;;27.37;50.52;98963.09;4290847;33;35120;-93
2023/06/11 11:15:52;;;;;;;;;;;;;;;26.48;53.39;98962.56;4291017;33;34370;-94
2023/06/11 11:18:20;;;;;;;;;;;;;;;27.31;49.02;98966.28;4303866;33;34038;-92
2023/06/11 11:20:48;;;;;;;;;;;;;;;27.10;52.04;98962.78;4291068;33;34241;-95
2023/06/11 11:23:16;;;;;;;;;;;;;;;26.72;52.41;98961.50;4279313;33;34339;-92
2023/06/11 11:25:44;;;;;;;;;;;;;;;26.02;56.48;98967.16;4262688;33;34721;-92
2023/06/11 11:28:12;;;;;;;;;;;;;;;25.85;54.83;98962.31;4262230;33;33164;-95
2023/06/11 11:30:40;;;;;;;;;;;;;;;25.63;55.99;98956.03;4274916;33;33703;-96
2023/06/11 11:33:08;;;;;;;;;;;;;;;26.92;50.88;98947.31;4289341;33;34978;-94
2023/06/11 11:35:46;;;;;;;;;;;;;;;26.86;50.89;98958.53;4287917;33;34784;-94
2023/06/11 11:38:15;;;;;;;;;;;;;;;25.41;56.22;98964.84;4289072;33;33054;-92
2023/06/11 11:40:42;;;;;;;;;;;;;;;24.69;58.93;98959.69;4276296;33;34917;-94
2023/06/11 11:43:13;;;;;;;;;;;;;;;24.90;60.53;98957.22;4289258;33;35928;-94
2023/06/11 11:45:44;;;;;;;;;;;;;;;25.32;58.36;98955.75;4264715;33;33526;-94
2023/06/11 11:48:14;;;;;;;;;;;;;;;24.81;57.84;98950.78;4276323;33;32089;-93
2023/06/11 11:51:01;;;;;;;;;;;;;;;24.64;60.15;98951.25;4277202;33;34963;-94
2023/06/11 11:53:29;;;;;;;;;;;;;;;25.17;57.75;98949.78;4276279;33;36049;-93
2023/06/11 11:55:57;;;;;;;;;;;;;;;25.20;58.86;98945.19;4273664;33;34858;-95
2023/06/11 11:58:37;;;;;;;;;;;;;;;24.84;59.33;98947.06;4263249;33;33830;-93
2023/06/11 12:01:09;;;;;;;;;;;;;;;25.21;54.15;98946.88;4276363;33;33914;-94
2023/06/11 12:03:37;;;;;;;;;;;;;;;24.99;56.61;98953.88;4289254;33;35013;-95
2023/06/11 12:06:07;;;;;;;;;;;;;;;25.85;53.20;98955.13;4275748;33;35328;-96
2023/06/11 12:08:35;;;;;;;;;;;;;;;24.88;57.62;98951.16;4276293;33;33225;-95
2023/06/11 12:11:06;;;;;;;;;;;;;;;25.33;54.98;98956.63;4274616;33;34122;-93
2023/06/11 12:13:34;;;;;;;;;;;;;;;25.23;57.36;98951.13;4274641;33;35151;-91
2023/06/11 12:16:03;;;;;;;;;;;;;;;25.35;58.38;98949.34;4290403;33;33373;-92
2023/06/11 12:18:32;;;;;;;;;;;;;;;26.12;57.36;98951.28;4302248;33;33190;-94
2023/06/11 12:21:00;;;;;;;;;;;;;;;27.35;52.65;98949.00;4303334;33;34119;-93
2023/06/11 12:23:28;;;;;;;;;;;;;;;28.27;46.90;98945.41;4303323;33;34941;-93
2023/06/11 12:25:56;;;;;;;;;;;;;;;28.43;49.37;98952.88;4278497;33;34652;-93
2023/06/11 12:28:24;;;;;;;;;;;;;;;28.45;52.84;98950.91;4303068;33;32946;-92
2023/06/11 12:30:52;;;;;;;;;;;;;;;28.34;51.64;98948.34;4302856;33;34192;-93
2023/06/11 12:33:20;;;;;;;;;;;;;;;27.71;56.86;98948.63;4301937;33;34294;-93
2023/06/11 12:35:48;;;;;;;;;;;;;;;28.26;49.98;98948.22;4289646;33;34799;-93
2023/06/11 12:38:17;;;;;;;;;;;;;;;27.22;56.66;98941.16;4303457;33;33050;-92
2023/06/11 12:40:46;;;;;;;;;;;;;;;26.14;63.11;98946.66;4292353;33;34948;-93
2023/06/11 12:43:13;;;;;;;;;;;;;;;27.59;56.70;98945.19;4304495;33;35090;-92
2023/06/11 12:45:41;;;;;;;;;;;;;;;27.75;55.07;98945.50;4291865;33;33776;-92
2023/06/11 12:48:09;;;;;;;;;;;;;;;27.94;54.55;98941.25;4292068;33;34122;-93
2023/06/11 12:50:38;;;;;;;;;;;;;;;27.15;57.17;98947.19;4303714;33;34852;-92
2023/06/11 12:53:06;;;;;;;;;;;;;;;27.36;56.53;98941.84;4292135;33;35810;-94
2023/06/11 12:55:34;;;;;;;;;;;;;;;26.07;63.64;98948.13;4304989;33;34453;-93
2023/06/11 12:58:02;;;;;;;;;;;;;;;26.15;61.15;98943.00;4305225;33;33276;-93